Time;durP1;ratioP1;P1;durP2;ratioP2;P2;SDS_P1;SDS_P2;PMS_P1;PMS_P2;Temp;Humidity;BMP_temperature;BMP_pressure;BME280_temperature;BME280_humidity;BME280_pressure;Samples;Min_cycle;Max_cycle;Signal;HPM_P1;HPM_P2
2023/01/22 00:02:14;;;;;;;39.88;19.38;;;3.90;57.10;;;;;;5082272;28;20048;-43
2023/01/22 00:04:41;;;;;;;40.20;20.65;;;3.90;57.10;;;;;;5081468;28;20071;-44
2023/01/22 00:07:08;;;;;;;44.33;21.90;;;3.90;57.10;;;;;;5080792;28;20056;-43
2023/01/22 00:09:36;;;;;;;42.90;21.45;;;4.00;57.20;;;;;;5079510;28;20515;-46
2023/01/22 00:12:03;;;;;;;45.03;20.35;;;4.00;57.20;;;;;;5080955;28;20051;-46
2023/01/22 00:14:31;;;;;;;46.90;21.63;;;4.00;57.20;;;;;;5076469;28;20056;-43
2023/01/22 00:16:59;;;;;;;44.38;20.75;;;4.00;57.20;;;;;;5081442;28;20517;-43
2023/01/22 00:19:26;;;;;;;45.92;21.42;;;4.00;57.20;;;;;;5080865;28;20048;-43
2023/01/22 00:21:53;;;;;;;43.85;21.65;;;4.00;57.30;;;;;;5081683;28;20071;-44
2023/01/22 00:24:20;;;;;;;45.15;21.55;;;4.00;57.40;;;;;;5078848;28;20518;-44
2023/01/22 00:26:47;;;;;;;43.83;22.30;;;3.90;57.60;;;;;;5080430;28;20064;-44
2023/01/22 00:29:15;;;;;;;46.58;22.42;;;3.90;57.90;;;;;;5080853;28;20047;-42
2023/01/22 00:31:44;;;;;;;45.50;21.02;;;3.80;58.10;;;;;;5081011;28;20071;-47
2023/01/22 00:34:11;;;;;;;46.60;22.42;;;3.80;58.40;;;;;;5080673;28;20596;-49
2023/01/22 00:36:40;;;;;;;45.67;22.42;;;3.70;58.60;;;;;;5079703;28;20048;-46
2023/01/22 00:39:09;;;;;;;48.40;22.05;;;3.70;58.80;;;;;;5078819;28;20408;-44
2023/01/22 00:41:36;;;;;;;48.13;22.52;;;3.60;58.90;;;;;;5078240;28;20591;-45
2023/01/22 00:44:04;;;;;;;47.80;21.98;;;3.60;59.10;;;;;;5080061;28;20063;-45
2023/01/22 00:46:31;;;;;;;45.00;22.33;;;3.60;59.20;;;;;;5078775;28;20051;-44
2023/01/22 00:49:02;;;;;;;51.03;23.08;;;3.50;59.40;;;;;;5079012;28;20607;-43
2023/01/22 00:51:30;;;;;;;51.28;24.02;;;3.50;59.70;;;;;;5079492;28;20048;-47
2023/01/22 00:53:57;;;;;;;43.72;22.42;;;3.40;59.90;;;;;;5080155;28;20511;-48
2023/01/22 00:56:24;;;;;;;44.22;22.17;;;3.50;59.90;;;;;;5076951;28;20412;-47
2023/01/22 00:58:51;;;;;;;47.60;21.70;;;3.40;60.00;;;;;;5079737;28;20511;-47
2023/01/22 01:01:19;;;;;;;47.97;22.13;;;3.40;60.20;;;;;;5079683;28;20399;-46
2023/01/22 01:03:46;;;;;;;52.58;23.63;;;3.30;60.50;;;;;;5079981;28;20043;-49
2023/01/22 01:06:18;;;;;;;45.58;21.20;;;3.30;60.70;;;;;;5079949;28;20420;-47
2023/01/22 01:08:46;;;;;;;48.70;22.52;;;3.30;60.80;;;;;;5079138;28;20052;-47
2023/01/22 01:11:15;;;;;;;50.22;23.10;;;3.30;60.90;;;;;;5077378;28;20488;-48
2023/01/22 01:13:45;;;;;;;43.75;22.10;;;3.30;61.30;;;;;;5079091;28;20097;-45
2023/01/22 01:16:14;;;;;;;44.13;21.33;;;3.20;61.10;;;;;;5079352;28;20055;-45
2023/01/22 01:18:41;;;;;;;43.83;21.15;;;3.20;61.30;;;;;;5080822;28;20044;-47
2023/01/22 01:21:10;;;;;;;44.17;20.15;;;3.20;61.40;;;;;;5081588;28;20056;-44
2023/01/22 01:23:40;;;;;;;52.80;23.73;;;3.10;61.50;;;;;;5078545;28;20056;-45
2023/01/22 01:26:08;;;;;;;47.08;22.05;;;3.10;61.90;;;;;;5076410;28;20063;-48
2023/01/22 01:28:36;;;;;;;45.92;22.67;;;3.10;61.80;;;;;;5080044;28;20051;-44
2023/01/22 01:31:05;;;;;;;42.35;21.17;;;3.10;62.10;;;;;;5079370;28;20048;-44
2023/01/22 01:33:32;;;;;;;44.30;21.60;;;3.10;62.10;;;;;;5081474;28;20063;-44
2023/01/22 01:36:01;;;;;;;43.22;22.75;;;3.00;62.00;;;;;;5080094;28;20064;-43
2023/01/22 01:38:29;;;;;;;44.63;22.95;;;3.00;62.20;;;;;;5078176;28;20776;-46
2023/01/22 01:40:58;;;;;;;41.22;20.67;;;3.00;62.20;;;;;;5077610;28;20059;-43
2023/01/22 01:43:27;;;;;;;43.67;20.38;;;3.00;62.00;;;;;;5075612;28;20052;-47
2023/01/22 01:45:55;;;;;;;43.20;21.02;;;3.00;61.90;;;;;;5079844;28;20051;-46
2023/01/22 01:48:28;;;;;;;40.80;21.23;;;3.00;61.90;;;;;;5075619;28;20052;-44
2023/01/22 01:51:02;;;;;;;37.47;19.98;;;3.00;61.80;;;;;;5079269;28;20052;-46
2023/01/22 01:53:29;;;;;;;42.22;21.58;;;3.10;61.80;;;;;;5079051;28;20518;-45
2023/01/22 01:56:00;;;;;;;41.05;20.55;;;3.10;61.70;;;;;;5075209;28;20060;-43
2023/01/22 01:58:30;;;;;;;39.53;19.98;;;3.10;61.60;;;;;;5080112;28;20056;-45
2023/01/22 02:01:05;;;;;;;43.10;20.13;;;3.10;61.40;;;;;;5080111;28;20078;-48
2023/01/22 02:03:32;;;;;;;37.80;19.52;;;3.10;61.30;;;;;;5078779;28;20056;-50
2023/01/22 02:06:03;;;;;;;40.25;20.70;;;3.10;61.20;;;;;;5081699;28;20491;-48
2023/01/22 02:08:30;;;;;;;41.60;20.92;;;3.10;61.20;;;;;;5083235;28;20048;-46
2023/01/22 02:10:59;;;;;;;43.08;20.58;;;3.10;61.10;;;;;;5080193;28;20059;-45
2023/01/22 02:13:30;;;;;;;44.92;21.60;;;3.10;61.00;;;;;;5082807;28;20059;-48
2023/01/22 02:15:57;;;;;;;35.72;19.33;;;3.20;61.00;;;;;;5083623;28;20055;-50
2023/01/22 02:18:24;;;;;;;38.53;19.83;;;3.20;60.90;;;;;;5084837;28;20411;-47
2023/01/22 02:20:55;;;;;;;37.25;20.55;;;3.20;60.80;;;;;;5079415;28;20051;-51
2023/01/22 02:23:22;;;;;;;34.55;19.98;;;3.20;60.80;;;;;;5081601;28;20044;-52
2023/01/22 02:25:50;;;;;;;37.15;19.23;;;3.20;60.70;;;;;;5078769;28;20056;-50
2023/01/22 02:28:17;;;;;;;32.22;18.42;;;3.20;60.60;;;;;;5080482;28;20052;-47
2023/01/22 02:30:45;;;;;;;31.73;17.60;;;3.30;60.50;;;;;;5083024;28;20488;-47
2023/01/22 02:33:12;;;;;;;33.85;17.45;;;3.30;60.40;;;;;;5080802;28;20056;-48
2023/01/22 02:35:39;;;;;;;34.03;18.17;;;3.30;61.10;;;;;;5082529;28;20161;-47
2023/01/22 02:38:08;;;;;;;32.20;17.92;;;3.30;60.20;;;;;;5074412;28;20518;-45
2023/01/22 02:40:35;;;;;;;34.47;17.30;;;3.40;60.00;;;;;;5082044;28;20044;-49
2023/01/22 02:43:02;;;;;;;33.03;17.67;;;3.40;59.90;;;;;;5083227;28;20493;-50
2023/01/22 02:45:30;;;;;;;34.47;17.33;;;3.40;59.90;;;;;;5082264;28;20523;-47
2023/01/22 02:47:57;;;;;;;27.90;15.82;;;3.40;59.70;;;;;;5078988;28;20056;-47
2023/01/22 02:50:24;;;;;;;32.45;16.90;;;3.40;59.60;;;;;;5080992;28;20408;-48
2023/01/22 02:52:51;;;;;;;27.75;16.77;;;3.40;59.50;;;;;;5081979;28;20051;-48
2023/01/22 02:55:20;;;;;;;30.15;16.65;;;3.40;59.50;;;;;;5081047;28;20415;-46
2023/01/22 02:57:47;;;;;;;28.63;16.10;;;3.40;59.50;;;;;;5082219;28;20059;-45
2023/01/22 03:00:15;;;;;;;29.48;15.82;;;3.50;59.50;;;;;;5080336;28;20052;-47
2023/01/22 03:02:42;;;;;;;27.88;15.98;;;3.50;59.50;;;;;;5081304;28;20161;-45
2023/01/22 03:05:10;;;;;;;31.27;16.15;;;3.40;59.30;;;;;;5081729;28;20648;-48
2023/01/22 03:07:43;;;;;;;28.05;16.52;;;3.50;59.40;;;;;;5082728;28;20057;-47
2023/01/22 03:10:13;;;;;;;25.13;14.43;;;3.50;59.30;;;;;;5080221;28;20067;-51
2023/01/22 03:21:14;;;;;;;26.35;14.40;;;3.50;59.00;;;;;;5081774;28;20055;-48
2023/01/22 03:23:41;;;;;;;28.35;14.43;;;3.50;58.90;;;;;;5077481;28;20051;-46
2023/01/22 03:26:09;;;;;;;27.83;14.68;;;3.50;58.90;;;;;;5081856;28;20056;-50
2023/01/22 03:28:38;;;;;;;27.08;13.20;;;3.40;58.80;;;;;;5082109;28;20408;-48
2023/01/22 03:31:05;;;;;;;23.40;13.45;;;3.40;58.80;;;;;;5081810;28;20051;-49
2023/01/22 03:33:33;;;;;;;22.50;13.70;;;3.40;58.80;;;;;;5082539;28;20059;-47
2023/01/22 03:36:01;;;;;;;23.38;13.90;;;3.40;58.90;;;;;;5081490;28;20063;-45
2023/01/22 03:38:29;;;;;;;22.13;13.63;;;3.40;58.90;;;;;;5074779;28;20056;-46
2023/01/22 03:41:02;;;;;;;25.27;14.05;;;3.40;58.80;;;;;;5079880;28;20053;-43
2023/01/22 03:43:33;;;;;;;25.35;14.80;;;3.40;58.80;;;;;;5081797;28;20044;-46
2023/01/22 03:46:04;;;;;;;24.73;14.02;;;3.30;58.80;;;;;;5082401;28;20424;-49
2023/01/22 03:48:31;;;;;;;27.85;13.63;;;3.30;58.90;;;;;;5081780;28;20060;-47
2023/01/22 03:51:04;;;;;;;22.55;13.32;;;3.30;58.90;;;;;;5076576;28;20411;-49
2023/01/22 03:53:32;;;;;;;22.17;13.02;;;3.30;59.00;;;;;;5079977;28;20051;-44
2023/01/22 03:56:01;;;;;;;21.52;12.43;;;3.20;58.90;;;;;;5079469;28;20415;-47
2023/01/22 03:58:29;;;;;;;23.02;13.40;;;3.20;58.90;;;;;;5081915;28;20071;-46
2023/01/22 04:00:57;;;;;;;23.92;13.63;;;3.30;59.00;;;;;;5081589;28;20048;-47
2023/01/22 04:03:27;;;;;;;20.60;12.02;;;3.30;59.00;;;;;;5081426;28;20048;-48
2023/01/22 04:05:58;;;;;;;21.85;12.73;;;3.30;58.90;;;;;;5077770;28;20055;-47
2023/01/22 04:08:27;;;;;;;21.38;12.75;;;3.30;59.00;;;;;;5080181;28;20051;-46
2023/01/22 04:10:54;;;;;;;22.58;12.13;;;3.30;58.90;;;;;;5078780;28;20054;-44
2023/01/22 04:13:22;;;;;;;18.70;11.05;;;3.30;58.80;;;;;;5080656;28;20056;-49
2023/01/22 04:15:53;;;;;;;19.95;11.93;;;3.30;58.80;;;;;;5081167;28;20489;-46
2023/01/22 04:18:20;;;;;;;17.33;11.43;;;3.30;58.80;;;;;;5076933;28;20063;-45
2023/01/22 04:20:49;;;;;;;20.10;11.68;;;3.30;58.80;;;;;;5080455;28;20051;-45
2023/01/22 04:23:17;;;;;;;18.92;11.32;;;3.30;58.70;;;;;;5079999;28;20043;-44
2023/01/22 04:25:45;;;;;;;17.80;10.85;;;3.30;58.70;;;;;;5079971;28;20059;-43
2023/01/22 04:28:14;;;;;;;17.13;11.15;;;3.30;58.70;;;;;;5080511;28;20055;-45
2023/01/22 04:30:42;;;;;;;15.85;10.13;;;3.30;58.70;;;;;;5080264;28;20504;-46
2023/01/22 04:33:09;;;;;;;17.45;11.18;;;3.30;58.60;;;;;;5078101;28;20402;-44
2023/01/22 04:35:37;;;;;;;18.20;11.15;;;3.40;58.70;;;;;;5078503;28;20051;-42
2023/01/22 04:38:07;;;;;;;15.48;10.70;;;3.40;58.60;;;;;;5080703;28;20059;-46
2023/01/22 04:40:35;;;;;;;16.38;10.35;;;3.40;58.50;;;;;;5078347;28;20059;-48
2023/01/22 04:43:02;;;;;;;17.20;10.70;;;3.40;58.50;;;;;;5081030;28;20059;-44
2023/01/22 04:45:30;;;;;;;17.75;11.27;;;3.40;59.00;;;;;;5078959;28;20048;-48
2023/01/22 04:47:58;;;;;;;18.02;11.20;;;3.50;58.50;;;;;;5078894;28;20059;-44
2023/01/22 04:50:27;;;;;;;17.10;10.45;;;3.50;58.30;;;;;;5081358;28;20058;-44
2023/01/22 04:52:56;;;;;;;15.25;9.98;;;3.50;58.30;;;;;;5077843;28;20055;-46
2023/01/22 04:55:25;;;;;;;14.18;9.18;;;3.50;58.20;;;;;;5078872;28;20055;-44
2023/01/22 04:57:54;;;;;;;17.02;9.77;;;3.60;58.20;;;;;;5079659;28;20079;-44
2023/01/22 05:00:22;;;;;;;17.27;10.38;;;3.60;58.80;;;;;;5078489;28;20048;-44
2023/01/22 05:02:49;;;;;;;14.13;9.50;;;3.60;58.50;;;;;;5079790;28;20040;-47
2023/01/22 05:05:16;;;;;;;14.20;9.00;;;3.60;58.20;;;;;;5079723;28;20056;-44
2023/01/22 05:07:44;;;;;;;15.50;9.60;;;3.60;58.30;;;;;;5076078;28;20060;-45
2023/01/22 05:10:11;;;;;;;15.90;9.95;;;3.60;58.30;;;;;;5079339;28;20052;-44
2023/01/22 05:12:40;;;;;;;14.38;9.75;;;3.70;58.20;;;;;;5080736;28;20051;-45
2023/01/22 05:15:08;;;;;;;13.38;8.93;;;3.70;58.10;;;;;;5069888;28;20055;-46
2023/01/22 05:17:35;;;;;;;14.10;8.95;;;3.70;58.00;;;;;;5069857;28;20052;-42
2023/01/22 05:20:03;;;;;;;14.05;9.32;;;3.70;58.00;;;;;;5074966;28;20511;-45
2023/01/22 05:22:30;;;;;;;15.10;9.57;;;3.70;58.00;;;;;;5077009;28;20055;-44
2023/01/22 05:24:57;;;;;;;14.70;9.63;;;3.70;58.00;;;;;;5075137;28;20965;-44
2023/01/22 05:27:24;;;;;;;15.27;9.73;;;3.70;58.00;;;;;;5076933;28;20075;-45
2023/01/22 05:29:53;;;;;;;13.65;9.25;;;3.80;57.90;;;;;;5081984;28;20056;-43
2023/01/22 05:32:20;;;;;;;13.52;8.90;;;3.80;57.90;;;;;;5075026;28;20057;-45
2023/01/22 05:34:47;;;;;;;13.52;8.98;;;3.80;57.90;;;;;;5076634;28;20051;-45
2023/01/22 05:37:15;;;;;;;15.63;9.75;;;3.80;57.90;;;;;;5079763;28;20491;-42
2023/01/22 05:39:42;;;;;;;13.65;9.20;;;3.90;57.80;;;;;;5082770;28;20060;-45
2023/01/22 05:42:13;;;;;;;12.15;8.75;;;3.90;57.80;;;;;;5082470;28;20060;-46
2023/01/22 05:44:40;;;;;;;14.15;9.20;;;3.90;57.80;;;;;;5084380;28;20399;-47
2023/01/22 05:47:09;;;;;;;13.90;9.48;;;4.00;57.80;;;;;;5082940;28;20052;-42
2023/01/22 05:49:36;;;;;;;14.60;9.40;;;4.00;57.70;;;;;;5075921;28;20061;-47
2023/01/22 05:52:03;;;;;;;15.88;9.02;;;4.00;57.60;;;;;;5083845;28;20055;-46
2023/01/22 05:54:31;;;;;;;12.43;8.80;;;4.00;57.40;;;;;;5081367;28;20354;-46
2023/01/22 05:56:58;;;;;;;17.13;9.90;;;4.00;57.40;;;;;;5082210;28;20059;-45
2023/01/22 05:59:25;;;;;;;14.25;9.35;;;4.00;57.50;;;;;;5082256;28;20063;-44
2023/01/22 06:01:53;;;;;;;15.50;9.55;;;4.00;57.60;;;;;;5083644;28;20060;-43
2023/01/22 06:04:21;;;;;;;12.95;9.50;;;4.00;57.60;;;;;;5081608;28;20048;-43
2023/01/22 06:06:49;;;;;;;13.57;9.52;;;4.00;57.60;;;;;;5083478;28;20487;-45
2023/01/22 06:09:16;;;;;;;14.63;10.27;;;4.00;57.60;;;;;;5078471;28;20361;-47
2023/01/22 06:11:43;;;;;;;17.20;10.40;;;4.00;57.60;;;;;;5082187;28;20067;-45
2023/01/22 06:14:10;;;;;;;15.15;9.95;;;4.10;57.70;;;;;;5082283;28;20052;-46
2023/01/22 06:16:38;;;;;;;14.32;10.23;;;4.10;57.70;;;;;;5081805;28;20642;-47
2023/01/22 06:19:05;;;;;;;16.50;9.68;;;4.10;57.70;;;;;;5083891;28;20055;-47
2023/01/22 06:21:33;;;;;;;14.80;10.13;;;4.10;57.60;;;;;;5083274;28;20048;-45
2023/01/22 06:24:01;;;;;;;19.98;11.82;;;4.20;57.50;;;;;;5080601;28;20048;-44
2023/01/22 06:26:28;;;;;;;14.02;9.80;;;4.20;57.50;;;;;;5081125;28;20062;-48
2023/01/22 06:28:55;;;;;;;14.57;10.25;;;4.20;57.50;;;;;;5083491;28;20071;-47
2023/01/22 06:31:22;;;;;;;17.15;11.02;;;4.20;57.40;;;;;;5081634;28;20071;-44
2023/01/22 06:33:50;;;;;;;17.00;11.10;;;4.20;57.40;;;;;;5072343;28;20477;-44
2023/01/22 06:36:17;;;;;;;15.45;10.50;;;4.20;57.40;;;;;;5069154;28;20052;-44
2023/01/22 06:38:45;;;;;;;14.45;10.57;;;4.20;57.40;;;;;;5077549;28;20060;-44
2023/01/22 06:41:13;;;;;;;15.65;10.98;;;4.20;57.40;;;;;;5080087;28;20052;-45
2023/01/22 06:43:40;;;;;;;15.45;10.88;;;4.20;57.40;;;;;;5080661;28;20055;-45
2023/01/22 06:46:07;;;;;;;17.35;11.02;;;4.20;57.50;;;;;;5076020;28;20055;-47
2023/01/22 06:48:34;;;;;;;16.38;10.35;;;4.20;57.50;;;;;;5081026;28;20531;-43
2023/01/22 06:51:01;;;;;;;15.32;11.35;;;4.20;57.50;;;;;;5078748;28;20055;-47
2023/01/22 06:53:29;;;;;;;15.82;11.43;;;4.20;57.50;;;;;;5080231;28;20484;-44
2023/01/22 06:56:00;;;;;;;14.82;10.30;;;4.20;57.40;;;;;;5081936;28;20063;-43
2023/01/22 06:58:27;;;;;;;15.40;10.65;;;4.20;57.50;;;;;;5080202;28;20058;-42
2023/01/22 07:00:55;;;;;;;15.18;10.40;;;4.20;57.50;;;;;;5076874;28;20067;-44
2023/01/22 07:03:22;;;;;;;14.30;10.38;;;4.20;57.50;;;;;;5078172;28;20051;-45
2023/01/22 07:05:56;;;;;;;17.92;11.48;;;4.20;57.60;;;;;;5078461;28;20048;-46
2023/01/22 07:08:24;;;;;;;15.10;10.82;;;4.20;57.50;;;;;;5073746;28;20518;-48
2023/01/22 07:10:51;;;;;;;17.25;10.75;;;4.20;57.40;;;;;;5079534;28;20059;-45
2023/01/22 07:13:20;;;;;;;16.25;11.15;;;4.30;57.50;;;;;;5083000;28;20528;-46
2023/01/22 07:15:47;;;;;;;14.90;10.32;;;4.30;57.50;;;;;;5081232;28;20059;-45
2023/01/22 07:18:18;;;;;;;15.88;11.18;;;4.30;57.50;;;;;;5080192;28;20048;-45
2023/01/22 07:20:46;;;;;;;14.30;10.13;;;4.30;57.40;;;;;;5079023;28;20063;-44
2023/01/22 07:23:14;;;;;;;14.13;9.70;;;4.30;57.40;;;;;;5079078;28;20056;-46
2023/01/22 07:25:41;;;;;;;15.02;10.45;;;4.30;57.40;;;;;;5079830;28;20453;-46
2023/01/22 07:28:08;;;;;;;14.77;10.68;;;4.30;57.40;;;;;;5076851;28;20055;-44
2023/01/22 07:30:39;;;;;;;12.75;9.98;;;4.40;57.30;;;;;;5074290;28;20044;-44
2023/01/22 07:33:10;;;;;;;15.75;10.25;;;4.30;57.20;;;;;;5071913;28;20048;-44
2023/01/22 07:35:39;;;;;;;15.10;10.65;;;4.30;57.20;;;;;;5077217;28;20040;-44
2023/01/22 07:38:07;;;;;;;16.52;10.85;;;4.40;57.20;;;;;;5080133;28;20055;-43
2023/01/22 07:40:36;;;;;;;14.68;10.50;;;4.30;57.20;;;;;;5080505;28;20052;-46
2023/01/22 07:43:13;;;;;;;15.00;10.35;;;4.40;57.10;;;;;;5081379;28;20060;-42
2023/01/22 07:45:43;;;;;;;13.32;9.75;;;4.40;57.10;;;;;;5080891;28;20044;-45
2023/01/22 07:48:11;;;;;;;11.73;9.23;;;4.40;57.10;;;;;;5076334;28;20059;-45
2023/01/22 07:50:39;;;;;;;13.15;9.02;;;4.40;57.10;;;;;;5078748;28;20056;-43
2023/01/22 07:53:07;;;;;;;15.07;10.40;;;4.40;57.20;;;;;;5075899;28;20055;-45
2023/01/22 07:55:37;;;;;;;13.05;9.32;;;4.40;57.10;;;;;;5076201;28;20514;-44
2023/01/22 07:58:06;;;;;;;11.55;9.10;;;4.50;57.10;;;;;;5076385;28;20060;-46
2023/01/22 08:00:35;;;;;;;14.45;9.80;;;4.50;57.10;;;;;;5077719;28;20416;-42
2023/01/22 08:03:05;;;;;;;14.13;9.38;;;4.50;57.00;;;;;;5078926;28;20412;-44
2023/01/22 08:05:33;;;;;;;14.43;9.65;;;4.50;57.00;;;;;;5076509;28;20052;-43
2023/01/22 08:08:00;;;;;;;14.15;9.98;;;4.50;56.90;;;;;;5080095;28;20060;-45
2023/01/22 08:10:28;;;;;;;11.90;9.13;;;4.50;56.90;;;;;;5078902;28;20056;-47
2023/01/22 08:12:55;;;;;;;13.15;9.75;;;4.50;56.80;;;;;;5079511;28;20055;-42
2023/01/22 08:15:23;;;;;;;12.48;9.05;;;4.50;56.80;;;;;;5080319;28;20381;-47
2023/01/22 08:17:50;;;;;;;14.75;9.50;;;4.50;56.70;;;;;;5081080;28;20059;-44
2023/01/22 08:20:19;;;;;;;14.43;9.68;;;4.40;56.70;;;;;;5075923;28;20056;-46
2023/01/22 08:22:47;;;;;;;11.90;8.68;;;4.50;56.80;;;;;;5079331;28;20059;-46
2023/01/22 08:25:14;;;;;;;11.35;8.50;;;4.40;56.80;;;;;;5079611;28;20055;-46
2023/01/22 08:27:42;;;;;;;12.48;9.07;;;4.40;56.80;;;;;;5080336;28;20063;-46
2023/01/22 08:30:11;;;;;;;11.00;8.48;;;4.40;56.90;;;;;;5079389;28;20415;-44
2023/01/22 08:32:40;;;;;;;13.20;8.80;;;4.40;56.90;;;;;;5078414;28;21586;-44
2023/01/22 08:35:07;;;;;;;11.48;8.00;;;4.40;57.00;;;;;;5076369;28;20044;-44
2023/01/22 08:37:36;;;;;;;14.32;8.75;;;4.40;57.00;;;;;;5081694;28;20048;-42
2023/01/22 08:40:05;;;;;;;12.18;8.68;;;4.40;56.90;;;;;;5077804;28;20048;-47
2023/01/22 08:42:32;;;;;;;12.40;8.43;;;4.40;56.90;;;;;;5080420;28;20055;-46
2023/01/22 08:44:59;;;;;;;11.73;8.30;;;4.40;56.90;;;;;;5073955;28;20099;-45
2023/01/22 08:47:27;;;;;;;11.40;7.55;;;4.40;57.00;;;;;;5073716;28;20044;-44
2023/01/22 08:49:54;;;;;;;11.55;8.18;;;4.40;57.10;;;;;;5073606;28;20472;-44
2023/01/22 08:52:21;;;;;;;10.60;7.75;;;4.40;57.10;;;;;;5073172;28;20059;-44
2023/01/22 08:54:50;;;;;;;10.35;7.65;;;4.40;57.10;;;;;;5078568;28;20072;-44
2023/01/22 08:57:17;;;;;;;9.80;7.10;;;4.40;57.20;;;;;;5077797;28;20046;-45
2023/01/22 08:59:44;;;;;;;11.82;8.20;;;4.50;57.30;;;;;;5078187;28;20129;-45
2023/01/22 09:02:13;;;;;;;11.32;7.88;;;4.50;57.20;;;;;;5078792;28;20052;-46
2023/01/22 09:04:40;;;;;;;9.73;7.55;;;4.50;57.10;;;;;;5081124;28;20048;-44
2023/01/22 09:07:09;;;;;;;9.00;7.00;;;4.50;57.10;;;;;;5079448;28;20055;-44
2023/01/22 09:09:37;;;;;;;10.48;7.78;;;4.60;57.10;;;;;;5077785;28;20045;-44
2023/01/22 09:12:05;;;;;;;9.38;7.40;;;4.60;57.10;;;;;;5080886;28;20059;-44
2023/01/22 09:14:33;;;;;;;10.23;7.47;;;4.60;57.00;;;;;;5073912;28;20059;-46
2023/01/22 09:17:00;;;;;;;10.38;7.30;;;4.60;56.90;;;;;;5078583;28;20048;-47
2023/01/22 09:19:27;;;;;;;12.13;7.07;;;4.70;56.90;;;;;;5078677;28;20515;-45
2023/01/22 09:21:54;;;;;;;9.73;7.20;;;4.70;56.90;;;;;;5080712;28;20052;-46
2023/01/22 09:24:21;;;;;;;10.10;7.38;;;4.70;56.80;;;;;;5078144;28;20067;-48
2023/01/22 09:26:49;;;;;;;10.13;7.18;;;4.70;56.80;;;;;;5077243;28;20048;-45
2023/01/22 09:29:17;;;;;;;11.60;7.53;;;4.70;56.80;;;;;;5076475;28;20070;-45
2023/01/22 09:31:44;;;;;;;8.23;6.47;;;4.70;56.80;;;;;;5078572;28;20579;-46
2023/01/22 09:34:12;;;;;;;10.13;7.65;;;4.80;56.90;;;;;;5079765;28;20094;-45
2023/01/22 09:36:40;;;;;;;8.60;6.70;;;4.80;56.90;;;;;;5078544;28;20055;-43
2023/01/22 09:39:07;;;;;;;10.00;6.97;;;4.80;56.90;;;;;;5078229;28;20055;-47
2023/01/22 09:41:38;;;;;;;9.48;6.82;;;4.80;56.90;;;;;;5079510;28;20055;-47
2023/01/22 09:44:10;;;;;;;9.02;6.53;;;4.90;56.90;;;;;;5076626;28;20052;-46
2023/01/22 09:46:45;;;;;;;10.00;7.10;;;4.90;56.80;;;;;;5076747;28;20051;-48
2023/01/22 09:49:15;;;;;;;10.13;6.57;;;4.90;56.80;;;;;;5078691;28;20424;-43
2023/01/22 09:51:45;;;;;;;8.43;6.55;;;5.00;56.80;;;;;;5078322;28;20056;-44
2023/01/22 09:54:15;;;;;;;9.38;6.30;;;5.00;56.80;;;;;;5077500;28;20078;-47
2023/01/22 09:56:44;;;;;;;8.75;6.45;;;5.00;56.80;;;;;;5078637;28;20392;-47
2023/01/22 09:59:16;;;;;;;9.13;7.07;;;5.00;56.80;;;;;;5079210;28;20040;-44
2023/01/22 10:01:47;;;;;;;11.05;7.97;;;5.10;56.70;;;;;;5078674;28;20063;-44
2023/01/22 10:04:30;;;;;;;14.23;9.68;;;5.10;56.70;;;;;;5075598;28;20055;-46
2023/01/22 10:07:00;;;;;;;15.05;9.77;;;5.10;56.70;;;;;;5079894;28;20491;-48
2023/01/22 10:09:30;;;;;;;13.82;9.85;;;5.20;56.60;;;;;;5077517;28;20062;-46
2023/01/22 10:12:00;;;;;;;14.27;10.15;;;5.20;56.50;;;;;;5079415;28;20059;-45
2023/01/22 10:14:29;;;;;;;18.00;12.15;;;5.20;56.50;;;;;;5076544;28;20048;-45
2023/01/22 10:17:02;;;;;;;14.75;10.68;;;5.20;56.40;;;;;;5080288;28;20047;-44
2023/01/22 10:19:37;;;;;;;18.20;11.75;;;5.20;56.40;;;;;;5077172;28;20500;-46
2023/01/22 10:22:11;;;;;;;14.52;10.35;;;5.20;56.40;;;;;;5073902;28;20519;-44
2023/01/22 10:24:39;;;;;;;16.05;11.05;;;5.20;56.40;;;;;;5075178;28;20075;-46
2023/01/22 10:27:11;;;;;;;16.85;11.23;;;5.20;56.40;;;;;;5080609;28;20508;-46
2023/01/22 10:29:38;;;;;;;16.60;10.63;;;5.20;56.40;;;;;;5081633;28;20909;-43
2023/01/22 10:32:21;;;;;;;14.45;10.25;;;5.10;56.40;;;;;;5083521;28;20071;-45
2023/01/22 10:34:59;;;;;;;13.02;9.60;;;5.10;56.40;;;;;;5083484;28;20051;-45
2023/01/22 10:37:28;;;;;;;15.07;10.18;;;5.10;56.50;;;;;;5077382;28;20055;-47
2023/01/22 10:39:58;;;;;;;14.55;9.68;;;5.10;56.70;;;;;;5080771;28;20063;-45
2023/01/22 10:42:28;;;;;;;15.40;10.30;;;5.10;56.70;;;;;;5081369;28;20055;-43
2023/01/22 10:44:57;;;;;;;16.15;10.82;;;5.10;56.70;;;;;;5081103;28;20052;-48
2023/01/22 10:47:27;;;;;;;15.05;10.43;;;5.20;56.70;;;;;;5081301;28;20040;-45
2023/01/22 10:50:06;;;;;;;13.13;9.20;;;5.20;56.70;;;;;;5082196;28;20088;-46
2023/01/22 10:52:40;;;;;;;14.48;10.45;;;5.20;56.70;;;;;;5079969;28;20051;-46
2023/01/22 10:55:21;;;;;;;14.82;10.13;;;5.20;56.70;;;;;;5079753;28;20059;-45
2023/01/22 10:57:54;;;;;;;15.02;10.70;;;5.20;56.70;;;;;;5082613;28;20486;-46
2023/01/22 11:00:25;;;;;;;17.30;11.13;;;5.20;56.70;;;;;;5081584;28;20056;-43
2023/01/22 11:02:54;;;;;;;16.65;11.32;;;5.20;56.70;;;;;;5078876;28;20059;-46
2023/01/22 11:05:24;;;;;;;16.75;11.20;;;5.20;56.70;;;;;;5082777;28;20056;-46
2023/01/22 11:07:54;;;;;;;15.13;11.23;;;5.20;56.70;;;;;;5080875;28;20044;-44
2023/01/22 11:10:25;;;;;;;14.73;10.80;;;5.30;56.80;;;;;;5080274;28;20495;-45
2023/01/22 11:12:58;;;;;;;15.55;10.85;;;5.30;56.90;;;;;;5075769;28;20052;-42
2023/01/22 11:15:34;;;;;;;16.10;11.70;;;5.30;57.00;;;;;;5080260;28;20467;-45
2023/01/22 11:18:06;;;;;;;17.15;11.45;;;5.30;56.90;;;;;;5083157;28;20059;-44
2023/01/22 11:20:40;;;;;;;17.65;11.55;;;5.40;56.90;;;;;;5080290;28;20492;-45
2023/01/22 11:23:19;;;;;;;14.57;10.55;;;5.40;56.90;;;;;;5082261;28;20078;-44
2023/01/22 11:26:05;;;;;;;16.15;11.07;;;5.40;56.90;;;;;;5081476;28;20411;-46
2023/01/22 11:28:41;;;;;;;14.75;10.52;;;5.50;56.90;;;;;;5077050;28;20055;-45
2023/01/22 11:31:25;;;;;;;15.85;11.15;;;5.50;56.80;;;;;;5080629;28;20492;-44
2023/01/22 11:34:15;;;;;;;15.77;10.73;;;5.50;56.70;;;;;;5079955;28;20059;-45
2023/01/22 11:36:46;;;;;;;13.88;10.38;;;5.60;56.70;;;;;;5078510;28;20063;-45
2023/01/22 11:39:28;;;;;;;17.15;10.10;;;5.60;56.60;;;;;;5076856;28;20059;-47
2023/01/22 11:42:03;;;;;;;13.35;9.50;;;5.60;56.50;;;;;;5078872;28;20051;-44
2023/01/22 11:44:51;;;;;;;15.23;9.73;;;5.60;56.50;;;;;;5082839;28;20052;-45
2023/01/22 11:47:42;;;;;;;13.63;8.93;;;5.60;56.40;;;;;;5076020;28;20624;-45
2023/01/22 11:50:22;;;;;;;12.98;9.38;;;5.60;56.40;;;;;;5081098;28;20068;-44
2023/01/22 11:52:58;;;;;;;11.98;8.75;;;5.60;56.40;;;;;;5076009;28;20067;-45
2023/01/22 11:55:46;;;;;;;12.90;8.73;;;5.60;56.30;;;;;;5080758;28;20059;-48
2023/01/22 11:58:23;;;;;;;10.65;8.00;;;5.70;56.30;;;;;;5081141;28;20056;-46
2023/01/22 12:00:59;;;;;;;11.13;7.38;;;5.60;56.20;;;;;;5082170;28;20055;-46
2023/01/22 12:04:14;;;;;;;9.88;7.28;;;5.60;56.20;;;;;;5077955;28;20416;-44
2023/01/22 12:07:21;;;;;;;11.27;7.68;;;5.60;56.20;;;;;;5079829;28;20043;-42
2023/01/22 12:10:00;;;;;;;10.98;6.85;;;5.70;56.20;;;;;;5076874;28;20048;-49
2023/01/22 12:12:40;;;;;;;10.02;6.82;;;5.60;56.20;;;;;;5076874;28;20048;-45
2023/01/22 12:15:31;;;;;;;9.75;7.10;;;5.60;56.10;;;;;;5077946;28;20059;-46
2023/01/22 12:18:25;;;;;;;10.35;7.20;;;5.60;56.10;;;;;;5081868;28;20059;-45
2023/01/22 12:21:07;;;;;;;12.65;7.18;;;5.70;56.10;;;;;;5081658;28;20075;-47
2023/01/22 12:23:40;;;;;;;10.48;7.38;;;5.60;56.10;;;;;;5081767;28;20436;-48
2023/01/22 12:26:12;;;;;;;10.02;7.40;;;5.60;56.20;;;;;;5082560;27;20048;-46
2023/01/22 12:28:45;;;;;;;10.93;7.22;;;5.60;56.30;;;;;;5078585;28;20056;-43
2023/01/22 12:31:18;;;;;;;10.93;7.43;;;5.60;56.90;;;;;;5079252;28;20345;-45
2023/01/22 12:33:45;;;;;;;10.70;7.30;;;5.70;56.50;;;;;;5082237;28;20063;-48
2023/01/22 12:36:17;;;;;;;11.57;7.35;;;5.60;56.40;;;;;;5082479;28;20060;-46
2023/01/22 12:38:52;;;;;;;11.07;7.78;;;5.60;56.40;;;;;;5080260;28;20519;-47
2023/01/22 12:41:44;;;;;;;10.82;8.02;;;5.60;56.40;;;;;;5082328;28;20059;-47
2023/01/22 12:44:21;;;;;;;9.95;7.13;;;5.60;56.40;;;;;;5075688;28;20056;-46
2023/01/22 12:47:04;;;;;;;9.93;7.10;;;5.50;56.50;;;;;;5082604;28;20401;-46
2023/01/22 12:49:31;;;;;;;12.15;7.38;;;5.50;56.60;;;;;;5082559;28;20067;-44
2023/01/22 12:51:59;;;;;;;10.15;7.15;;;5.50;56.70;;;;;;5083751;28;20065;-43
2023/01/22 12:54:35;;;;;;;10.95;7.65;;;5.50;56.80;;;;;;5080698;28;20055;-45
2023/01/22 12:57:23;;;;;;;10.18;7.40;;;5.60;56.90;;;;;;5078170;28;20060;-45
2023/01/22 12:59:52;;;;;;;10.30;7.28;;;5.60;56.90;;;;;;5075985;28;20051;-45
2023/01/22 13:02:34;;;;;;;11.15;8.25;;;5.60;56.80;;;;;;5082092;28;20056;-45
2023/01/22 13:05:18;;;;;;;11.23;8.23;;;5.60;56.80;;;;;;5082342;28;20063;-45